Time;durP1;ratioP1;P1;durP2;ratioP2;P2;SDS_P1;SDS_P2;PMS_P1;PMS_P2;Temp;Humidity;BMP_temperature;BMP_pressure;BME280_temperature;BME280_humidity;BME280_pressure;Samples;Min_cycle;Max_cycle;Signal;HPM_P1;HPM_P2
2023/04/26 01:40:07;659480.00;2.20;1137.04;24317.00;0.08;42.75;;;;;12.90;1.00;;;;;;2266439;61;1032;-91
2023/04/26 02:30:06;975569.00;3.25;1689.25;0.00;0.00;0.62;;;;;13.00;1.00;;;;;;2266639;61;988;-93
2023/04/26 03:17:39;1194002.00;3.98;2079.38;25343.00;0.08;44.52;;;;;12.70;1.00;;;;;;2266646;61;946;-92
2023/04/26 03:50:14;1044356.00;3.48;1811.19;0.00;0.00;0.62;;;;;11.80;1.00;;;;;;2266588;61;959;-92
2023/04/26 04:00:30;710367.00;2.37;1225.22;0.00;0.00;0.62;;;;;12.10;1.00;;;;;;2508151;40;3460;31
2023/04/26 05:48:21;1048915.00;3.50;1819.30;64909.00;0.22;112.96;;;;;12.20;1.00;;;;;;2261965;61;1018;-92
2023/04/26 05:58:16;677067.00;2.26;1167.49;0.00;0.00;0.62;;;;;12.90;1.00;;;;;;2266356;61;962;-92
2023/04/26 06:20:58;889980.00;2.97;1538.53;0.00;0.00;0.62;;;;;13.40;1.00;;;;;;2266013;61;1933;-93
2023/04/26 06:51:35;920053.00;3.07;1591.37;103010.00;0.34;178.77;;;;;16.00;1.00;;;;;;2507633;40;3506;31
2023/04/26 07:04:00;1252256.00;4.17;2184.99;129078.00;0.43;223.74;;;;;15.10;1.00;;;;;;2506436;55;3589;31
2023/04/26 07:48:49;767224.00;2.56;1324.02;60748.00;0.20;105.77;;;;;17.80;1.00;;;;;;2505352;40;3463;31
2023/04/26 09:21:44;120157896.00;400.53;70276928.00;119408016.00;398.03;68968208.00;;;;;17.40;1.00;;;;;;2322111;40;3487;-90
2023/04/26 09:44:23;608592.00;2.03;1049.06;0.00;0.00;0.62;;;;;18.20;1.00;;;;;;2451572;40;3692;-87
2023/04/26 10:14:44;907731.00;3.03;1569.70;87879.00;0.29;152.65;;;;;17.40;1.00;;;;;;2498939;40;3520;31
2023/04/26 10:52:19;728472.00;2.43;1256.65;0.00;0.00;0.62;;;;;17.60;1.00;;;;;;830065;56;3563;-87
2023/04/26 11:02:45;542075.00;1.81;934.30;0.00;0.00;0.62;;;;;17.80;1.00;;;;;;622510;40;3123;-90
2023/04/26 11:10:10;738381.00;2.46;1273.86;95371.00;0.32;165.58;;;;;18.00;1.00;;;;;;2266815;61;1010;-89
2023/04/26 11:12:41;284598.00;0.95;491.44;88506.00;0.30;153.73;;;;;17.80;1.00;;;;;;2265016;61;1174;-89
2023/04/26 11:17:41;953086.00;3.18;1649.55;164273.00;0.55;284.40;;;;;18.10;1.00;;;;;;2265985;61;1358;-88
2023/04/26 11:25:08;666738.00;2.22;1149.60;100650.00;0.34;174.69;;;;;18.10;1.00;;;;;;2277682;40;3496;-89
2023/04/26 11:37:42;465689.00;1.55;802.77;95003.00;0.32;164.95;;;;;19.20;1.00;;;;;;2265693;61;1417;-89
2023/04/26 11:45:07;921846.00;3.07;1594.52;91027.00;0.30;158.08;;;;;18.90;1.00;;;;;;2269565;61;1477;-88
2023/04/26 11:50:04;1033916.00;3.45;1792.63;176219.00;0.59;304.98;;;;;18.10;1.00;;;;;;2265926;61;1262;-89
2023/04/26 11:55:05;608170.00;2.03;1048.33;92943.00;0.31;161.39;;;;;18.80;1.00;;;;;;2370440;40;3459;-88
2023/04/26 12:10:15;737994.00;2.46;1273.19;115321.00;0.38;200.01;;;;;19.90;1.00;;;;;;2265960;61;1238;-87
2023/04/26 12:15:15;1343964.00;4.48;2352.79;2964.00;0.01;5.76;;;;;18.60;1.00;;;;;;2289235;40;3556;-86
2023/04/26 12:20:16;965301.00;3.22;1671.11;0.00;0.00;0.62;;;;;16.30;1.00;;;;;;1943483;40;3474;-89
2023/04/26 12:22:56;631572.00;2.11;1088.77;0.00;0.00;0.62;;;;;16.90;1.00;;;;;;2267920;61;1907;-89
2023/04/26 12:25:25;869148.00;2.90;1502.00;64314.00;0.21;111.93;;;;;17.20;1.00;;;;;;2267954;61;1012;-89
2023/04/26 12:27:52;832067.00;2.77;1437.11;19244.00;0.06;33.96;;;;;18.00;1.00;;;;;;2297757;40;3605;-88
2023/04/26 12:32:48;895321.00;2.98;1547.90;0.00;0.00;0.62;;;;;17.50;1.00;;;;;;2149655;40;3461;-88
2023/04/26 12:35:15;491944.00;1.64;847.96;5780.00;0.02;10.64;;;;;17.70;1.00;;;;;;2263910;61;1000;-88
2023/04/26 12:37:42;528009.00;1.76;910.06;13117.00;0.04;23.35;;;;;17.60;1.00;;;;;;2264039;61;1608;-88
2023/04/26 12:40:11;580401.00;1.93;1000.39;80036.00;0.27;139.10;;;;;17.20;1.00;;;;;;2296408;40;3573;-90
2023/04/26 12:42:39;687320.00;2.29;1185.26;0.00;0.00;0.62;;;;;17.40;1.00;;;;;;2268050;61;2014;-88
2023/04/26 12:45:07;318033.00;1.06;548.92;0.00;0.00;0.62;;;;;17.20;1.00;;;;;;2268114;61;966;-86
2023/04/26 12:47:35;597278.00;1.99;1029.52;0.00;0.00;0.62;;;;;17.20;1.00;;;;;;2267947;61;1793;-88
2023/04/26 12:50:03;726907.00;2.42;1253.93;0.00;0.00;0.62;;;;;17.70;1.00;;;;;;2304029;40;3642;-89
2023/04/26 12:52:31;643310.00;2.14;1109.06;0.00;0.00;0.62;;;;;18.10;1.00;;;;;;2267910;61;1285;-89
2023/04/26 12:57:32;759858.00;2.53;1311.20;0.00;0.00;0.62;;;;;18.70;1.00;;;;;;2265257;61;1308;-89
2023/04/26 13:00:00;547819.00;1.83;944.20;0.00;0.00;0.62;;;;;18.60;1.00;;;;;;2263975;61;1028;-88
2023/04/26 13:04:56;724528.00;2.42;1249.80;99771.00;0.33;173.18;;;;;18.60;1.00;;;;;;2274634;61;1332;-91
2023/04/26 13:07:23;652728.00;2.18;1125.36;22031.00;0.07;38.79;;;;;18.80;1.00;;;;;;2272658;61;1355;-88
2023/04/26 13:09:50;739335.00;2.46;1275.52;1478.00;0.00;3.18;;;;;18.60;1.00;;;;;;2272675;61;1105;-88
2023/04/26 13:12:17;349969.00;1.17;603.81;3363.00;0.01;6.45;;;;;18.60;1.00;;;;;;2272655;61;1178;-88
2023/04/26 13:14:45;293508.00;0.98;506.76;0.00;0.00;0.62;;;;;18.80;1.00;;;;;;2272069;61;963;-88
2023/04/26 13:17:14;618166.00;2.06;1065.60;12936.00;0.04;23.04;;;;;18.80;1.00;;;;;;2321557;40;3624;-87
2023/04/26 13:19:41;816695.00;2.72;1410.26;13320.00;0.04;23.70;;;;;18.70;1.00;;;;;;2267811;61;1198;-87
2023/04/26 13:22:10;404892.00;1.35;698.22;0.00;0.00;0.62;;;;;18.30;1.00;;;;;;2267959;61;1982;-85
2023/04/26 13:24:38;740816.00;2.47;1278.09;30348.00;0.10;53.19;;;;;18.80;1.00;;;;;;2267904;61;938;-88
2023/04/26 13:27:05;399714.00;1.33;689.31;20209.00;0.07;35.63;;;;;19.10;1.00;;;;;;2267979;61;1016;-87
2023/04/26 13:29:32;567107.00;1.89;977.46;0.00;0.00;0.62;;;;;19.10;1.00;;;;;;2267930;61;1285;-87
2023/04/26 13:32:00;545286.00;1.82;939.83;36633.00;0.12;64.06;;;;;18.90;1.00;;;;;;2267900;61;1054;-89
2023/04/26 13:34:29;1159380.00;3.86;2016.95;43292.00;0.14;75.58;;;;;18.80;1.00;;;;;;2267464;61;1287;-88
2023/04/26 13:36:57;306962.00;1.02;529.89;0.00;0.00;0.62;;;;;19.00;1.00;;;;;;2267528;61;1197;-88
2023/04/26 13:39:26;695127.00;2.32;1198.79;0.00;0.00;0.62;;;;;19.20;1.00;;;;;;2267810;61;1130;-88
2023/04/26 13:41:53;232156.00;0.77;401.26;0.00;0.00;0.62;;;;;19.40;1.00;;;;;;2267893;61;1990;-87
2023/04/26 13:44:20;839750.00;2.80;1450.54;58671.00;0.20;102.18;;;;;19.50;1.00;;;;;;2267860;61;1553;-88
2023/04/26 13:46:47;630084.00;2.10;1086.19;107989.00;0.36;187.36;;;;;19.90;1.00;;;;;;2267823;61;1203;-87
2023/04/26 13:49:15;771343.00;2.57;1331.19;31614.00;0.11;55.38;;;;;20.10;1.00;;;;;;2267758;61;1069;-87
2023/04/26 13:51:45;1074182.00;3.58;1864.31;21089.00;0.07;37.16;;;;;20.10;1.00;;;;;;2302657;40;3592;-87
2023/04/26 13:56:42;716288.00;2.39;1235.50;33169.00;0.11;58.07;;;;;20.10;1.00;;;;;;2270987;40;3494;-87
2023/04/26 13:59:08;476815.00;1.59;821.92;0.00;0.00;0.62;;;;;19.90;1.00;;;;;;2270942;55;3862;-88
2023/04/26 14:01:36;149109.00;0.50;258.27;0.00;0.00;0.62;;;;;20.00;1.00;;;;;;2282225;40;3748;-88
2023/04/26 14:06:35;437521.00;1.46;754.32;0.00;0.00;0.62;;;;;20.30;1.00;;;;;;2265338;61;1370;-88
2023/04/26 14:16:42;552137.00;1.84;951.64;0.00;0.00;0.62;;;;;18.90;1.00;;;;;;2265445;61;1225;-89
2023/04/26 14:19:09;282280.00;0.94;487.46;0.00;0.00;0.62;;;;;19.00;1.00;;;;;;2263789;61;993;-88
2023/04/26 14:21:35;288775.00;0.96;498.62;27281.00;0.09;47.88;;;;;18.80;1.00;;;;;;2263739;61;1677;-87
2023/04/26 14:24:03;398212.00;1.33;686.73;0.00;0.00;0.62;;;;;18.70;1.00;;;;;;2263715;61;1922;-85
2023/04/26 14:26:30;154631.00;0.52;267.79;0.00;0.00;0.62;;;;;18.60;1.00;;;;;;2263570;61;1469;-88
2023/04/26 14:29:00;172979.00;0.58;299.40;0.00;0.00;0.62;;;;;18.80;1.00;;;;;;2263692;61;1186;-89
2023/04/26 14:31:29;267766.00;0.89;462.50;0.00;0.00;0.62;;;;;18.70;1.00;;;;;;2263709;61;1089;-88
2023/04/26 14:33:57;192254.00;0.64;332.59;0.00;0.00;0.62;;;;;19.00;1.00;;;;;;2269600;40;3677;-89
2023/04/26 14:38:54;440656.00;1.47;759.71;0.00;0.00;0.62;;;;;18.60;1.00;;;;;;2265151;61;1309;-87
2023/04/26 14:48:53;386066.00;1.29;665.85;0.00;0.00;0.62;;;;;19.00;1.00;;;;;;2265161;61;1455;-88
2023/04/26 14:51:21;221509.00;0.74;382.94;0.00;0.00;0.62;;;;;18.90;1.00;;;;;;2290873;56;3744;-88
2023/04/26 14:53:48;241290.00;0.80;416.97;0.00;0.00;0.62;;;;;18.60;1.00;;;;;;2267485;61;1378;-86
2023/04/26 14:56:15;168294.00;0.56;291.33;0.00;0.00;0.62;;;;;18.70;1.00;;;;;;2267704;61;1726;-89
2023/04/26 14:58:42;117592.00;0.39;203.93;0.00;0.00;0.62;;;;;18.80;1.00;;;;;;2267693;61;1743;-86
2023/04/26 15:01:09;230986.00;0.77;399.25;0.00;0.00;0.62;;;;;18.90;1.00;;;;;;2268378;61;1734;-87
2023/04/26 15:03:36;283400.00;0.94;489.38;0.00;0.00;0.62;;;;;19.10;1.00;;;;;;2313722;40;3613;-87
2023/04/26 15:08:34;495114.00;1.65;853.41;0.00;0.00;0.62;;;;;18.70;1.00;;;;;;2265656;61;1487;-88
2023/04/26 15:16:03;581816.00;1.94;1002.83;0.00;0.00;0.62;;;;;18.40;1.00;;;;;;1561828;40;3420;-87
2023/04/26 15:18:31;172742.00;0.58;298.99;0.00;0.00;0.62;;;;;18.20;1.00;;;;;;2268185;61;1703;-88
2023/04/26 15:20:58;282182.00;0.94;487.29;0.00;0.00;0.62;;;;;18.60;1.00;;;;;;2293649;40;3605;-87
2023/04/26 15:23:25;459535.00;1.53;792.18;0.00;0.00;0.62;;;;;18.90;1.00;;;;;;2276183;61;1988;-89
2023/04/26 15:28:23;573840.00;1.91;989.07;0.00;0.00;0.62;;;;;19.10;1.00;;;;;;2294420;40;3535;-88
2023/04/26 15:30:51;274135.00;0.91;473.45;0.00;0.00;0.62;;;;;18.70;1.00;;;;;;2268061;61;981;-87
2023/04/26 15:33:18;108884.00;0.36;188.90;0.00;0.00;0.62;;;;;18.60;1.00;;;;;;2289829;40;3729;-89
2023/04/26 15:38:18;517555.00;1.73;892.05;0.00;0.00;0.62;;;;;18.50;1.00;;;;;;2273872;61;1433;-89
2023/04/26 15:43:15;490927.00;1.64;846.20;0.00;0.00;0.62;;;;;18.20;1.00;;;;;;2265811;61;1966;-88
2023/04/26 15:48:13;576262.00;1.92;993.25;0.00;0.00;0.62;;;;;17.70;1.00;;;;;;2271113;55;3642;-87
2023/04/26 15:50:40;175013.00;0.58;302.90;0.00;0.00;0.62;;;;;17.90;1.00;;;;;;2267999;61;1742;-88
2023/04/26 15:53:07;251664.00;0.84;434.81;25388.00;0.08;44.60;;;;;18.10;1.00;;;;;;2268298;61;1585;-86
2023/04/26 15:55:34;162751.00;0.54;281.78;0.00;0.00;0.62;;;;;18.20;1.00;;;;;;2268105;61;1525;-88
2023/04/26 16:00:32;349271.00;1.16;602.61;0.00;0.00;0.62;;;;;18.40;1.00;;;;;;2265577;61;1325;-88
2023/04/26 16:03:00;235574.00;0.79;407.14;0.00;0.00;0.62;;;;;18.30;1.00;;;;;;2264014;61;2019;-87
2023/04/26 16:05:30;159598.00;0.53;276.35;0.00;0.00;0.62;;;;;18.40;1.00;;;;;;2263940;61;1644;-88
2023/04/26 16:07:58;105840.00;0.35;183.65;0.00;0.00;0.62;;;;;18.50;1.00;;;;;;2263964;61;1760;-89
2023/04/26 16:10:25;146999.00;0.49;254.64;0.00;0.00;0.62;;;;;18.60;1.00;;;;;;2267802;55;3762;-87
2023/04/26 16:15:27;319026.00;1.06;550.62;0.00;0.00;0.62;;;;;17.80;1.00;;;;;;1683462;40;3206;-89
2023/04/26 16:23:01;550516.00;1.84;948.85;0.00;0.00;0.62;;;;;17.60;1.00;;;;;;1972662;60;1966;-87
2023/04/26 16:25:28;160627.00;0.54;278.12;0.00;0.00;0.62;;;;;17.50;1.00;;;;;;2264129;61;931;-87
2023/04/26 16:30:24;747191.00;2.49;1289.17;65732.00;0.22;114.38;;;;;17.10;1.00;;;;;;2289114;40;3519;-87
2023/04/26 16:40:26;791552.00;2.64;1366.39;27695.00;0.09;48.59;;;;;17.30;1.00;;;;;;2265558;61;1218;-89
2023/04/26 16:45:28;282859.00;0.94;488.45;0.00;0.00;0.62;;;;;16.20;1.00;;;;;;2271447;56;2437;-87
2023/04/26 16:47:55;58044.00;0.19;101.10;0.00;0.00;0.62;;;;;16.00;1.00;;;;;;2268231;61;886;-88
2023/04/26 16:50:22;473859.00;1.58;816.83;37930.00;0.13;66.31;;;;;15.60;1.00;;;;;;2268158;61;1062;-90
2023/04/26 16:52:49;258709.00;0.86;446.93;0.00;0.00;0.62;;;;;15.40;1.00;;;;;;2268017;61;1425;-89
2023/04/26 16:55:17;139264.00;0.46;241.30;0.00;0.00;0.62;;;;;15.40;1.00;;;;;;2268180;61;1023;-89
2023/04/26 16:57:46;46724.00;0.16;81.52;0.00;0.00;0.62;;;;;15.50;1.00;;;;;;2267983;61;1617;-88
2023/04/26 17:00:14;518874.00;1.73;894.33;88633.00;0.30;153.95;;;;;15.50;1.00;;;;;;2268080;61;1581;-89
2023/04/26 17:02:41;433115.00;1.44;746.74;87183.00;0.29;151.44;;;;;15.50;1.00;;;;;;2281719;40;3571;-89
2023/04/26 17:07:38;959268.00;3.20;1660.46;203008.00;0.68;351.10;;;;;15.90;1.00;;;;;;2265736;61;1399;-88
2023/04/26 17:10:06;449064.00;1.50;774.17;108800.00;0.36;188.76;;;;;15.80;1.00;;;;;;2264027;61;935;-89
2023/04/26 17:12:33;776460.00;2.59;1340.10;119768.00;0.40;207.68;;;;;15.50;1.00;;;;;;2263883;61;1632;-89
2023/04/26 17:15:01;289478.00;0.96;499.83;99317.00;0.33;172.39;;;;;15.60;1.00;;;;;;2263968;61;1700;-91
2023/04/26 17:17:29;293497.00;0.98;506.74;87925.00;0.29;152.72;;;;;15.50;1.00;;;;;;2264048;61;1462;-87
2023/04/26 17:22:23;703715.00;2.35;1213.68;80783.00;0.27;140.39;;;;;14.80;1.00;;;;;;2265779;61;1409;-87
2023/04/26 17:24:50;690300.00;2.30;1190.42;202507.00;0.68;350.24;;;;;14.60;1.00;;;;;;2264106;61;1985;-91
2023/04/26 17:27:17;435862.00;1.45;751.47;107437.00;0.36;186.41;;;;;14.70;1.00;;;;;;2264033;61;1083;-89
2023/04/26 17:29:45;354514.00;1.18;611.62;106593.00;0.36;184.95;;;;;14.90;1.00;;;;;;2264012;61;1563;-90
2023/04/26 17:32:13;416246.00;1.39;717.74;90651.00;0.30;157.43;;;;;15.10;1.00;;;;;;2263881;61;1443;-88
2023/04/26 17:34:40;490350.00;1.63;845.21;85544.00;0.29;148.61;;;;;15.20;1.00;;;;;;2263823;61;1117;-88
2023/04/26 17:37:07;485552.00;1.62;836.95;84331.00;0.28;146.52;;;;;14.90;1.00;;;;;;2263823;61;1692;-88
2023/04/26 17:39:35;256930.00;0.86;443.87;85028.00;0.28;147.72;;;;;14.90;1.00;;;;;;2263942;61;1659;-87
2023/04/26 17:42:02;712395.00;2.37;1228.74;174152.00;0.58;301.42;;;;;14.70;1.00;;;;;;2263903;61;1031;-87
2023/04/26 17:44:29;443366.00;1.48;764.37;103914.00;0.35;180.33;;;;;14.60;1.00;;;;;;2263807;61;2031;-89
2023/04/26 17:46:56;352540.00;1.18;608.23;108992.00;0.36;189.09;;;;;14.30;1.00;;;;;;2263815;61;1110;-88
2023/04/26 17:49:25;369861.00;1.23;638.00;97991.00;0.33;170.10;;;;;14.50;1.00;;;;;;2263935;61;932;-89
2023/04/26 17:51:52;410772.00;1.37;708.32;77561.00;0.26;134.82;;;;;14.50;1.00;;;;;;2263903;61;941;-87
2023/04/26 17:54:19;463114.00;1.54;798.34;94583.00;0.32;164.22;;;;;14.60;1.00;;;;;;2263955;61;1233;-88
2023/04/26 17:56:46;671484.00;2.24;1157.82;115144.00;0.38;199.71;;;;;14.80;1.00;;;;;;2263791;61;1023;-87
2023/04/26 17:59:13;541926.00;1.81;934.04;101389.00;0.34;175.97;;;;;14.80;1.00;;;;;;2263933;61;1015;-88
2023/04/26 18:01:40;446067.00;1.49;769.02;82228.00;0.27;142.89;;;;;14.90;1.00;;;;;;2263879;61;1073;-88
2023/04/26 18:04:07;421844.00;1.41;727.36;98678.00;0.33;171.29;;;;;15.00;1.00;;;;;;2263668;61;1924;-89
2023/04/26 18:06:36;433082.00;1.44;746.69;160696.00;0.54;278.24;;;;;14.70;1.00;;;;;;2263976;61;977;-90
2023/04/26 18:09:03;271390.00;0.90;468.73;97250.00;0.32;168.82;;;;;14.60;1.00;;;;;;2263934;61;1004;-87
2023/04/26 18:11:30;438096.00;1.46;755.31;109827.00;0.37;190.53;;;;;14.50;1.00;;;;;;2263846;61;1177;-88
2023/04/26 18:13:57;346475.00;1.15;597.80;97356.00;0.32;169.01;;;;;14.60;1.00;;;;;;2263839;61;1381;-88
2023/04/26 18:16:24;297876.00;0.99;514.27;91478.00;0.30;158.86;;;;;14.50;1.00;;;;;;2263747;61;981;-88
2023/04/26 18:18:51;400638.00;1.34;690.90;94955.00;0.32;164.86;;;;;14.30;1.00;;;;;;2263726;61;1131;-88
2023/04/26 18:21:18;783271.00;2.61;1351.96;123487.00;0.41;214.10;;;;;14.30;1.00;;;;;;2263685;61;1724;-88
2023/04/26 18:23:47;230647.00;0.77;398.66;0.00;0.00;0.62;;;;;14.20;1.00;;;;;;2263716;61;1998;-87
2023/04/26 18:26:14;182409.00;0.61;315.64;0.00;0.00;0.62;;;;;14.10;1.00;;;;;;2263801;61;1057;-88
2023/04/26 18:28:43;162741.00;0.54;281.76;0.00;0.00;0.62;;;;;14.20;1.00;;;;;;2263856;61;2254;-87
2023/04/26 18:31:11;135009.00;0.45;233.97;0.00;0.00;0.62;;;;;14.10;1.00;;;;;;2263748;61;1159;-88
2023/04/26 18:36:06;281600.00;0.94;486.29;0.00;0.00;0.62;;;;;13.90;1.00;;;;;;2266181;61;1396;-90
2023/04/26 18:38:33;365733.00;1.22;630.90;16012.00;0.05;28.36;;;;;13.90;1.00;;;;;;2264252;61;1025;-87
2023/04/26 18:41:02;371949.00;1.24;641.59;37499.00;0.12;65.56;;;;;14.00;1.00;;;;;;2264552;61;1150;-89
2023/04/26 18:45:58;981054.00;3.27;1698.94;24091.00;0.08;42.35;;;;;14.00;1.00;;;;;;2265828;61;1404;-88
2023/04/26 18:48:25;59291.00;0.20;103.25;0.00;0.00;0.62;;;;;14.10;1.00;;;;;;2264328;61;1023;-89
2023/04/26 18:50:53;200015.00;0.67;345.95;0.00;0.00;0.62;;;;;14.30;1.00;;;;;;2264225;61;1063;-89
2023/04/26 18:55:51;508471.00;1.69;876.41;0.00;0.00;0.62;;;;;14.40;1.00;;;;;;2273897;61;1420;-88
2023/04/26 18:58:20;353897.00;1.18;610.56;63119.00;0.21;109.87;;;;;14.50;1.00;;;;;;2272420;61;980;-88
2023/04/26 19:00:48;536499.00;1.79;924.69;126265.00;0.42;218.89;;;;;14.30;1.00;;;;;;2272502;61;939;-88
2023/04/26 19:03:15;349229.00;1.16;602.54;95452.00;0.32;165.72;;;;;14.30;1.00;;;;;;2272375;61;2274;-87
2023/04/26 19:05:43;278235.00;0.93;480.50;92808.00;0.31;161.16;;;;;14.30;1.00;;;;;;2278976;40;3603;-90
2023/04/26 19:08:10;329462.00;1.10;568.56;110626.00;0.37;191.91;;;;;14.30;1.00;;;;;;2269054;61;1557;-89
2023/04/26 19:13:07;430990.00;1.44;743.09;92863.00;0.31;161.25;;;;;14.00;1.00;;;;;;2266286;61;1420;-90
2023/04/26 19:18:04;597379.00;1.99;1029.69;99474.00;0.33;172.66;;;;;14.10;1.00;;;;;;2265826;61;1289;-88
2023/04/26 19:20:32;373938.00;1.25;645.01;92341.00;0.31;160.35;;;;;14.10;1.00;;;;;;2264228;61;1585;-90
2023/04/26 19:22:59;353315.00;1.18;609.56;89675.00;0.30;155.75;;;;;14.30;1.00;;;;;;2279786;40;3568;-90
2023/04/26 19:25:26;386809.00;1.29;667.13;133881.00;0.45;232.02;;;;;14.50;1.00;;;;;;2268321;61;2001;-88
2023/04/26 19:27:53;377722.00;1.26;651.51;86944.00;0.29;151.03;;;;;14.40;1.00;;;;;;2268255;61;1113;-89
2023/04/26 19:32:54;551872.00;1.84;951.19;93452.00;0.31;162.27;;;;;14.40;1.00;;;;;;2266153;61;1443;-89
2023/04/26 19:35:22;648433.00;2.16;1117.93;116360.00;0.39;201.80;;;;;14.10;1.00;;;;;;2264397;61;1133;-90
2023/04/26 19:37:49;591691.00;1.97;1019.88;90940.00;0.30;157.93;;;;;14.20;1.00;;;;;;2287210;40;3747;-90
2023/04/26 19:40:17;381579.00;1.27;658.14;87460.00;0.29;151.92;;;;;14.20;1.00;;;;;;2268336;61;2355;-88
2023/04/26 19:42:43;549271.00;1.83;946.70;87604.00;0.29;152.17;;;;;14.50;1.00;;;;;;2268240;61;2056;-88
2023/04/26 19:45:11;309346.00;1.03;533.99;84659.00;0.28;147.08;;;;;14.70;1.00;;;;;;2271259;55;3577;-88
2023/04/26 19:47:41;1151252.00;3.84;2002.33;143903.00;0.48;249.30;;;;;14.80;1.00;;;;;;2275897;61;1683;-89
2023/04/26 19:50:09;516158.00;1.72;889.65;83367.00;0.28;144.85;;;;;14.50;1.00;;;;;;2276159;61;1610;-89
2023/04/26 19:52:37;521822.00;1.74;899.40;93684.00;0.31;162.67;;;;;14.40;1.00;;;;;;2276440;61;1405;-88
2023/04/26 20:00:03;609271.00;2.03;1050.23;92719.00;0.31;161.00;;;;;15.00;1.00;;;;;;2265553;61;1422;-89
2023/04/26 20:02:30;354373.00;1.18;611.38;84060.00;0.28;146.05;;;;;15.10;1.00;;;;;;2264172;61;1625;-89
2023/04/26 20:04:57;403127.00;1.34;695.18;106903.00;0.36;185.49;;;;;15.10;1.00;;;;;;2264153;61;1995;-89
2023/04/26 20:09:55;564849.00;1.88;973.56;91455.00;0.30;158.82;;;;;15.10;1.00;;;;;;2265716;61;1346;-88
2023/04/26 20:12:22;491745.00;1.64;847.61;91975.00;0.31;159.72;;;;;15.10;1.00;;;;;;2264248;61;1292;-87
2023/04/26 20:14:50;453610.00;1.51;781.99;93442.00;0.31;162.25;;;;;15.20;1.00;;;;;;2264113;61;1247;-87
2023/04/26 20:19:47;598875.00;2.00;1032.28;86117.00;0.29;149.60;;;;;15.00;1.00;;;;;;2265753;61;1370;-88
2023/04/26 20:22:14;590025.00;1.97;1017.00;162266.00;0.54;280.94;;;;;15.20;1.00;;;;;;2264102;61;1796;-88
2023/04/26 20:24:42;556890.00;1.86;959.84;133080.00;0.44;230.64;;;;;15.20;1.00;;;;;;2264141;61;1908;-88
2023/04/26 20:27:10;534707.00;1.78;921.60;92446.00;0.31;160.53;;;;;15.20;1.00;;;;;;2264086;61;1133;-88
2023/04/26 20:29:37;579004.00;1.93;997.98;105942.00;0.35;183.83;;;;;15.30;1.00;;;;;;2264208;61;1086;-88
2023/04/26 20:32:05;890435.00;2.97;1539.33;194672.00;0.65;336.75;;;;;15.40;1.00;;;;;;2263945;61;1375;-85
2023/04/26 20:34:31;562761.00;1.88;969.96;122809.00;0.41;212.93;;;;;15.40;1.00;;;;;;2264256;61;1009;-87
2023/04/26 20:36:59;433510.00;1.45;747.42;96038.00;0.32;166.73;;;;;15.40;1.00;;;;;;2263986;61;1006;-90
2023/04/26 20:39:27;353585.00;1.18;610.02;92086.00;0.31;159.91;;;;;15.50;1.00;;;;;;2263927;61;995;-88
2023/04/26 20:41:54;610830.00;2.04;1052.92;92977.00;0.31;161.45;;;;;15.60;1.00;;;;;;2264136;61;1522;-89
2023/04/26 20:44:22;627850.00;2.09;1082.33;79187.00;0.26;137.63;;;;;15.40;1.00;;;;;;2264052;61;2004;-88
2023/04/26 20:46:49;494415.00;1.65;852.21;94574.00;0.32;164.21;;;;;15.30;1.00;;;;;;2264196;61;1123;-88
2023/04/26 20:49:15;365008.00;1.22;629.66;93480.00;0.31;162.32;;;;;15.30;1.00;;;;;;2264036;61;988;-87
2023/04/26 20:51:42;462010.00;1.54;796.44;91893.00;0.31;159.58;;;;;15.30;1.00;;;;;;2263884;61;2107;-88
2023/04/26 20:54:10;686444.00;2.29;1183.74;157499.00;0.52;272.73;;;;;15.40;1.00;;;;;;2264058;61;1272;-88
2023/04/26 20:56:36;524839.00;1.75;904.60;91686.00;0.31;159.22;;;;;15.30;1.00;;;;;;2264138;61;1167;-89
2023/04/26 20:59:03;432221.00;1.44;745.20;93909.00;0.31;163.06;;;;;15.30;1.00;;;;;;2264146;61;902;-88
2023/04/26 21:01:32;592573.00;1.98;1021.40;126166.00;0.42;218.72;;;;;15.30;1.00;;;;;;2264030;61;1569;-88
2023/04/26 21:03:59;833248.00;2.78;1439.17;127864.00;0.43;221.65;;;;;15.30;1.00;;;;;;2263890;61;2001;-87
2023/04/26 21:06:27;780091.00;2.60;1346.42;152597.00;0.51;264.28;;;;;15.20;1.00;;;;;;2264110;61;2198;-88
2023/04/26 21:08:54;397181.00;1.32;684.96;88789.00;0.30;154.22;;;;;15.30;1.00;;;;;;2264113;61;1033;-88
2023/04/26 21:11:20;519769.00;1.73;895.87;69317.00;0.23;120.58;;;;;15.30;1.00;;;;;;2264100;61;2243;-87
2023/04/26 21:13:48;484608.00;1.62;835.33;90117.00;0.30;156.51;;;;;15.20;1.00;;;;;;2264122;61;1380;-88
2023/04/26 21:16:15;330060.00;1.10;569.59;63101.00;0.21;109.84;;;;;15.20;1.00;;;;;;2263947;61;1034;-89
2023/04/26 21:18:43;710217.00;2.37;1224.96;91203.00;0.30;158.38;;;;;15.20;1.00;;;;;;2263999;61;1032;-88
2023/04/26 21:21:10;734669.00;2.45;1267.41;112215.00;0.37;194.65;;;;;15.20;1.00;;;;;;2264134;61;1167;-90
2023/04/26 21:23:37;413237.00;1.38;712.56;90468.00;0.30;157.12;;;;;15.30;1.00;;;;;;2263962;61;1934;-90
2023/04/26 21:26:04;530545.00;1.77;914.43;86500.00;0.29;150.26;;;;;15.30;1.00;;;;;;2264021;61;1641;-87
2023/04/26 21:28:31;530227.00;1.77;913.88;137833.00;0.46;238.84;;;;;15.10;1.00;;;;;;2264037;61;993;-86
2023/04/26 21:31:05;488587.00;1.63;842.18;100453.00;0.33;174.35;;;;;15.20;1.00;;;;;;2263970;61;1737;-88
2023/04/26 21:33:32;976379.00;3.25;1690.68;149798.00;0.50;259.46;;;;;15.10;1.00;;;;;;2263831;61;1284;-87
2023/04/26 21:36:00;704035.00;2.35;1214.24;97994.00;0.33;170.11;;;;;15.00;1.00;;;;;;2263727;61;1122;-88
2023/04/26 21:38:27;869967.00;2.90;1503.43;173256.00;0.58;299.87;;;;;14.90;1.00;;;;;;2269166;55;3749;-89
2023/04/26 21:40:54;952536.00;3.18;1648.58;176039.00;0.59;304.67;;;;;14.90;1.00;;;;;;2267773;61;996;-88
2023/04/26 21:43:21;902179.00;3.01;1559.95;181171.00;0.60;313.51;;;;;15.00;1.00;;;;;;2267830;61;1304;-90
2023/04/26 21:45:50;832146.00;2.77;1437.24;140569.00;0.47;243.55;;;;;14.90;1.00;;;;;;2267753;61;2013;-87
2023/04/26 21:50:47;1244099.00;4.15;2170.16;91087.00;0.30;158.18;;;;;14.70;1.00;;;;;;2268590;55;3682;-89
2023/04/26 21:53:16;878805.00;2.93;1518.92;70375.00;0.23;122.41;;;;;14.70;1.00;;;;;;2269475;61;1400;-90
2023/04/26 21:58:12;1193628.00;3.98;2078.70;142331.00;0.47;246.59;;;;;14.50;1.00;;;;;;2265844;61;1311;-89
2023/04/26 22:00:39;1495950.00;4.99;2635.50;209708.00;0.70;362.63;;;;;14.40;1.00;;;;;;2263795;61;1610;-89
2023/04/26 22:03:05;1631990.00;5.44;2894.03;145620.00;0.49;252.26;;;;;14.30;1.00;;;;;;2263880;61;1390;-88
2023/04/26 22:05:32;1731108.00;5.77;3086.03;146539.00;0.49;253.84;;;;;14.30;1.00;;;;;;2263756;61;2006;-88
2023/04/26 22:08:00;1250860.00;4.17;2182.45;101239.00;0.34;175.71;;;;;14.20;1.00;;;;;;2263790;61;978;-87
2023/04/26 22:10:28;1467484.00;4.89;2582.08;128292.00;0.43;222.38;;;;;14.30;1.00;;;;;;2264598;61;1063;-88
2023/04/26 22:12:55;1575260.00;5.25;2785.55;199891.00;0.67;345.74;;;;;14.20;1.00;;;;;;2264643;61;1290;-87
2023/04/26 22:15:22;1111218.00;3.70;1930.50;125281.00;0.42;217.19;;;;;14.50;1.00;;;;;;2264462;61;969;-89
2023/04/26 22:17:49;1232601.00;4.11;2149.28;84944.00;0.28;147.58;;;;;14.60;1.00;;;;;;2264609;61;1230;-89
2023/04/26 22:20:16;117714400.00;392.38;66072464.00;62257.00;0.21;108.38;;;;;14.50;1.00;;;;;;2264499;61;1182;-89
2023/04/26 22:22:43;983346.00;3.28;1703.00;100321.00;0.33;174.13;;;;;14.30;1.00;;;;;;2264405;61;1414;-89
2023/04/26 22:25:10;892430.00;2.97;1542.83;101674.00;0.34;176.46;;;;;14.20;1.00;;;;;;2264642;61;1920;-88
2023/04/26 22:27:38;679691.00;2.27;1172.04;110152.00;0.37;191.09;;;;;14.20;1.00;;;;;;2264506;61;1759;-89
2023/04/26 22:30:07;800136.00;2.67;1381.36;108884.00;0.36;188.90;;;;;14.00;1.00;;;;;;2264396;61;1044;-88
2023/04/26 22:32:34;678342.00;2.26;1169.70;106686.00;0.36;185.11;;;;;13.80;1.00;;;;;;2264401;61;1330;-89
2023/04/26 22:35:01;673362.00;2.24;1161.08;110939.00;0.37;192.45;;;;;13.80;1.00;;;;;;2264476;61;1016;-89